Time;durP1;ratioP1;P1;durP2;ratioP2;P2;SDS_P1;SDS_P2;PMS_P1;PMS_P2;Temp;Humidity;BMP_temperature;BMP_pressure;BME280_temperature;BME280_humidity;BME280_pressure;Samples;Min_cycle;Max_cycle;Signal;HPM_P1;HPM_P2
2023/10/20 00:01:43;;;;;;;2.30;2.03;;;13.90;99.90;;;;;;456924;259;28452;-72
2023/10/20 00:03:44;;;;;;;1.83;1.70;;;13.90;99.90;;;;;;456944;259;28400;-72
2023/10/20 00:05:45;;;;;;;2.30;1.70;;;13.90;99.90;;;;;;456930;259;28332;-72
2023/10/20 00:07:46;;;;;;;2.00;1.80;;;13.80;99.90;;;;;;456929;259;28342;-73
2023/10/20 00:09:49;;;;;;;2.03;1.90;;;13.90;99.90;;;;;;456907;259;28855;-72
2023/10/20 00:11:51;;;;;;;1.80;1.70;;;13.90;99.90;;;;;;456903;259;29035;-72
2023/10/20 00:13:51;;;;;;;2.23;2.13;;;13.90;99.90;;;;;;456941;259;29755;-73
2023/10/20 00:15:51;;;;;;;2.67;2.47;;;13.90;99.90;;;;;;456943;259;28916;-72
2023/10/20 00:17:53;;;;;;;2.30;2.10;;;13.90;99.90;;;;;;456925;259;28618;-73
2023/10/20 00:19:54;;;;;;;8.63;2.60;;;13.90;99.90;;;;;;456918;259;28330;-72
2023/10/20 00:21:55;;;;;;;2.47;2.33;;;13.90;99.90;;;;;;456919;259;28573;-73
2023/10/20 00:23:59;;;;;;;2.30;2.10;;;13.90;99.90;;;;;;456902;259;28542;-73
2023/10/20 00:25:59;;;;;;;3.60;2.23;;;13.90;99.90;;;;;;456915;259;28461;-74
2023/10/20 00:28:01;;;;;;;2.30;2.20;;;13.90;99.90;;;;;;456935;259;28471;-73
2023/10/20 00:30:02;;;;;;;2.73;2.53;;;13.90;99.90;;;;;;456926;259;28861;-73
2023/10/20 00:32:04;;;;;;;3.23;2.60;;;13.90;99.90;;;;;;456925;259;28831;-72
2023/10/20 00:34:04;;;;;;;2.30;2.10;;;13.90;99.90;;;;;;456936;259;29756;-74
2023/10/20 00:36:06;;;;;;;2.13;2.03;;;13.90;99.90;;;;;;456928;259;28376;-73
2023/10/20 00:38:07;;;;;;;2.20;2.10;;;13.90;99.90;;;;;;456876;259;28556;-73
2023/10/20 00:40:09;;;;;;;2.30;2.20;;;13.90;99.90;;;;;;456863;259;28419;-73
2023/10/20 00:42:09;;;;;;;2.30;2.10;;;13.80;99.90;;;;;;456846;259;28461;-72
2023/10/20 00:44:12;;;;;;;7.07;2.67;;;13.90;99.90;;;;;;456950;259;28800;-74
2023/10/20 00:46:14;;;;;;;4.50;2.83;;;13.80;99.90;;;;;;456931;259;28436;-72
2023/10/20 00:48:15;;;;;;;2.87;2.67;;;13.80;99.90;;;;;;456973;259;28454;-73
2023/10/20 00:50:16;;;;;;;2.50;2.40;;;13.80;99.90;;;;;;456953;259;28803;-73
2023/10/20 00:52:17;;;;;;;3.20;2.90;;;13.80;99.90;;;;;;456924;256;29108;-73
2023/10/20 00:54:20;;;;;;;2.90;2.40;;;13.80;99.90;;;;;;456927;259;29509;-73
2023/10/20 00:56:20;;;;;;;2.80;2.37;;;13.80;99.90;;;;;;456932;259;28746;-73
2023/10/20 00:58:21;;;;;;;3.30;3.07;;;13.80;99.90;;;;;;456953;259;28437;-73
2023/10/20 01:00:22;;;;;;;3.27;2.97;;;13.80;99.90;;;;;;456944;259;28407;-73
2023/10/20 01:02:24;;;;;;;3.30;3.00;;;13.80;99.90;;;;;;456979;259;28615;-73
2023/10/20 01:04:25;;;;;;;3.20;2.73;;;13.80;99.90;;;;;;456965;259;28626;-74
2023/10/20 01:06:26;;;;;;;2.77;2.57;;;13.80;99.90;;;;;;456964;259;28411;-73
2023/10/20 01:08:27;;;;;;;2.97;2.70;;;13.70;99.90;;;;;;456972;259;28457;-73
2023/10/20 01:10:29;;;;;;;4.83;2.80;;;13.70;99.90;;;;;;456964;259;28280;-73
2023/10/20 01:12:30;;;;;;;2.63;2.43;;;13.70;99.90;;;;;;456943;259;29023;-72
2023/10/20 01:14:35;;;;;;;4.40;2.80;;;13.70;99.90;;;;;;456967;259;28830;-73
2023/10/20 01:16:34;;;;;;;3.50;3.20;;;13.70;99.90;;;;;;456958;259;28349;-73
2023/10/20 01:18:35;;;;;;;3.03;2.80;;;13.70;99.90;;;;;;456955;259;28314;-73
2023/10/20 01:20:37;;;;;;;3.47;3.17;;;13.70;99.90;;;;;;456940;259;28847;-73
2023/10/20 01:22:38;;;;;;;3.80;2.90;;;13.70;99.90;;;;;;456983;259;28987;-72
2023/10/20 01:24:39;;;;;;;2.50;2.30;;;13.70;99.90;;;;;;456998;259;28747;-72
2023/10/20 01:26:43;;;;;;;3.50;2.47;;;13.70;99.90;;;;;;456966;259;28396;-73
2023/10/20 01:28:42;;;;;;;4.07;3.07;;;13.70;99.90;;;;;;456999;259;28339;-73
2023/10/20 01:30:43;;;;;;;3.13;2.93;;;13.70;99.90;;;;;;456921;259;28473;-72
2023/10/20 01:32:45;;;;;;;4.27;3.63;;;;;;;;;;456943;260;28327;-75
2023/10/20 01:34:47;;;;;;;3.13;2.83;;;13.60;99.90;;;;;;456966;260;26991;-72
2023/10/20 01:36:48;;;;;;;3.47;3.17;;;13.70;99.90;;;;;;456890;255;28828;-73
2023/10/20 01:38:49;;;;;;;3.60;2.67;;;13.70;99.90;;;;;;456947;259;28436;-72
2023/10/20 01:40:50;;;;;;;5.90;3.57;;;13.70;99.90;;;;;;456927;259;28431;-73
2023/10/20 01:42:52;;;;;;;5.87;2.97;;;13.60;99.90;;;;;;456975;259;28431;-74
2023/10/20 01:44:53;;;;;;;6.07;3.37;;;13.70;99.90;;;;;;456983;259;28289;-73
2023/10/20 01:46:54;;;;;;;4.93;3.30;;;13.70;99.90;;;;;;456978;259;28360;-72
2023/10/20 01:48:55;;;;;;;6.00;3.83;;;13.70;99.90;;;;;;456980;259;28459;-72
2023/10/20 01:50:59;;;;;;;3.73;3.30;;;13.60;99.90;;;;;;456947;259;28442;-72
2023/10/20 01:52:58;;;;;;;4.70;4.17;;;13.60;99.90;;;;;;456945;259;28323;-73
2023/10/20 01:54:59;;;;;;;2.80;2.60;;;13.60;99.90;;;;;;456979;259;28397;-72
2023/10/20 01:57:00;;;;;;;3.23;2.93;;;13.70;99.90;;;;;;456949;259;28740;-73
2023/10/20 01:59:03;;;;;;;4.90;3.37;;;13.60;99.90;;;;;;456930;259;29650;-72
2023/10/20 02:01:03;;;;;;;3.33;3.03;;;13.60;99.90;;;;;;456916;259;28842;-72
2023/10/20 02:03:04;;;;;;;3.20;2.87;;;13.60;99.90;;;;;;456963;259;28570;-74
2023/10/20 02:05:08;;;;;;;3.70;2.97;;;13.60;99.90;;;;;;456925;259;28471;-73
2023/10/20 02:07:07;;;;;;;4.20;3.20;;;13.60;99.90;;;;;;456854;259;28428;-73
2023/10/20 02:09:09;;;;;;;3.93;2.63;;;13.60;99.90;;;;;;456902;259;28513;-73
2023/10/20 02:11:09;;;;;;;3.60;2.93;;;13.60;99.90;;;;;;456846;259;28371;-72
2023/10/20 02:13:12;;;;;;;4.37;3.97;;;;;;;;;;456405;259;28366;-72
2023/10/20 02:15:13;;;;;;;4.37;3.87;;;13.60;99.90;;;;;;456641;256;26715;-71
2023/10/20 02:17:14;;;;;;;3.20;3.00;;;13.60;99.90;;;;;;456809;259;28328;-74
2023/10/20 02:19:15;;;;;;;3.80;3.50;;;13.60;99.90;;;;;;456902;259;28509;-72
2023/10/20 02:21:16;;;;;;;3.27;2.90;;;13.60;99.90;;;;;;456887;259;28456;-73
2023/10/20 02:23:18;;;;;;;3.63;3.30;;;13.60;99.90;;;;;;456914;259;28499;-73
2023/10/20 02:25:19;;;;;;;4.90;3.23;;;13.60;99.90;;;;;;456924;259;28431;-72
2023/10/20 02:27:20;;;;;;;7.87;3.60;;;13.60;99.90;;;;;;456914;259;28626;-72
2023/10/20 02:29:21;;;;;;;2.70;2.50;;;13.60;99.90;;;;;;456917;259;28922;-72
2023/10/20 02:31:23;;;;;;;5.70;4.47;;;13.50;99.90;;;;;;456927;259;28569;-73
2023/10/20 02:33:25;;;;;;;4.50;2.87;;;13.60;99.90;;;;;;456948;259;29089;-72
2023/10/20 02:35:25;;;;;;;3.03;2.83;;;13.60;99.90;;;;;;456949;259;28848;-73
2023/10/20 02:37:27;;;;;;;5.67;3.97;;;13.60;99.90;;;;;;456877;259;28799;-73
2023/10/20 02:39:28;;;;;;;5.57;3.60;;;13.60;99.90;;;;;;456843;260;28774;-72
2023/10/20 02:41:29;;;;;;;4.60;3.67;;;13.60;99.90;;;;;;456995;259;28414;-73
2023/10/20 02:43:31;;;;;;;3.20;2.90;;;13.60;99.90;;;;;;456957;259;28372;-73
2023/10/20 02:45:32;;;;;;;3.20;3.00;;;13.60;99.90;;;;;;456976;259;28536;-73
2023/10/20 02:47:33;;;;;;;2.77;2.57;;;13.60;99.90;;;;;;456995;259;28447;-73
2023/10/20 02:49:35;;;;;;;3.67;3.33;;;13.60;99.90;;;;;;456940;259;28416;-73
2023/10/20 02:51:35;;;;;;;3.70;3.27;;;13.60;99.90;;;;;;456934;259;28661;-73
2023/10/20 02:53:39;;;;;;;4.40;3.50;;;13.60;99.90;;;;;;456968;259;28434;-74
2023/10/20 02:55:38;;;;;;;7.40;3.70;;;13.60;99.90;;;;;;456939;259;28487;-73
2023/10/20 02:57:39;;;;;;;4.73;3.27;;;13.60;99.90;;;;;;456954;259;28852;-73
2023/10/20 02:59:40;;;;;;;3.43;3.13;;;13.60;99.90;;;;;;456949;259;29682;-72
2023/10/20 03:01:42;;;;;;;3.53;3.23;;;13.60;99.90;;;;;;456964;259;29246;-72
2023/10/20 03:03:43;;;;;;;4.13;3.10;;;13.60;99.90;;;;;;456971;259;29037;-72
2023/10/20 03:05:45;;;;;;;4.93;3.17;;;13.60;99.90;;;;;;456935;259;28469;-72
2023/10/20 03:07:45;;;;;;;4.10;3.70;;;13.60;99.90;;;;;;456939;259;28430;-73
2023/10/20 03:09:47;;;;;;;2.73;2.53;;;13.50;99.90;;;;;;456940;259;28467;-73
2023/10/20 03:11:49;;;;;;;4.43;4.03;;;;;;;;;;456951;259;28401;-72
2023/10/20 03:13:50;;;;;;;3.83;3.53;;;13.50;99.90;;;;;;456986;260;27128;-72
2023/10/20 03:15:51;;;;;;;3.10;2.90;;;13.50;99.90;;;;;;456941;259;28841;-73
2023/10/20 03:17:53;;;;;;;3.10;2.90;;;13.50;99.90;;;;;;456969;259;28438;-72
2023/10/20 03:19:54;;;;;;;3.57;3.27;;;13.50;99.90;;;;;;456945;259;28417;-72
2023/10/20 03:21:55;;;;;;;8.90;3.57;;;13.50;99.90;;;;;;456954;259;28456;-73
2023/10/20 03:23:56;;;;;;;5.03;4.10;;;13.50;99.90;;;;;;456969;259;28279;-72
2023/10/20 03:25:58;;;;;;;5.43;4.10;;;13.50;99.90;;;;;;456942;259;28459;-72
2023/10/20 03:27:59;;;;;;;5.10;4.03;;;13.50;99.90;;;;;;456970;259;28449;-74
2023/10/20 03:30:00;;;;;;;3.87;3.50;;;13.50;99.90;;;;;;456964;259;28316;-72
2023/10/20 03:32:03;;;;;;;7.07;3.70;;;13.50;99.90;;;;;;456945;259;28362;-72
2023/10/20 03:34:03;;;;;;;4.40;3.33;;;13.60;99.90;;;;;;456903;259;28289;-73
2023/10/20 03:36:04;;;;;;;5.20;4.70;;;13.60;99.90;;;;;;456963;259;29128;-72
2023/10/20 03:38:05;;;;;;;4.13;3.53;;;13.60;99.90;;;;;;456968;259;29037;-72
2023/10/20 03:40:13;;;;;;;3.63;3.30;;;13.60;99.90;;;;;;456961;259;28782;-72
2023/10/20 03:42:08;;;;;;;4.33;3.93;;;13.60;99.90;;;;;;456856;259;28902;-73
2023/10/20 03:44:09;;;;;;;4.10;3.60;;;13.60;99.90;;;;;;456927;259;28565;-74
2023/10/20 03:46:13;;;;;;;3.07;2.87;;;13.60;99.90;;;;;;456954;259;28423;-73
2023/10/20 03:48:11;;;;;;;5.23;2.70;;;13.60;99.90;;;;;;456939;259;28445;-73
2023/10/20 03:50:16;;;;;;;3.10;2.83;;;13.60;99.90;;;;;;456886;259;28390;-73
2023/10/20 03:52:18;;;;;;;3.77;3.43;;;13.60;99.90;;;;;;456866;259;28318;-72
2023/10/20 03:54:19;;;;;;;3.47;3.17;;;13.60;99.90;;;;;;456868;259;28500;-73
2023/10/20 03:56:23;;;;;;;2.43;2.30;;;;;;;;;;456936;259;28633;-73
2023/10/20 03:58:22;;;;;;;5.23;3.93;;;13.50;99.90;;;;;;456688;260;27044;-72
2023/10/20 04:00:29;;;;;;;7.17;3.87;;;13.60;99.90;;;;;;456902;259;29110;-74
2023/10/20 04:02:30;;;;;;;7.73;4.47;;;13.60;99.90;;;;;;456921;259;28417;-72
2023/10/20 04:04:31;;;;;;;9.17;3.50;;;13.60;99.90;;;;;;456902;259;29011;-73
2023/10/20 04:06:33;;;;;;;6.90;3.60;;;13.60;99.90;;;;;;456917;259;29012;-73
2023/10/20 04:08:34;;;;;;;5.20;3.73;;;13.60;99.90;;;;;;456927;259;28939;-72
2023/10/20 04:10:35;;;;;;;4.93;3.33;;;13.60;99.90;;;;;;456927;259;28761;-73
2023/10/20 04:12:36;;;;;;;3.23;2.93;;;13.60;99.90;;;;;;456913;259;28297;-73
2023/10/20 04:14:38;;;;;;;3.93;3.23;;;13.60;99.90;;;;;;456971;259;28553;-73
2023/10/20 04:16:42;;;;;;;3.97;3.47;;;13.60;99.90;;;;;;456926;259;28505;-73
2023/10/20 04:18:43;;;;;;;4.53;3.30;;;13.60;99.90;;;;;;456918;259;28814;-72
2023/10/20 04:20:44;;;;;;;4.80;3.60;;;13.60;99.90;;;;;;456918;259;28840;-73
2023/10/20 04:22:49;;;;;;;5.27;3.47;;;13.60;99.90;;;;;;456922;259;28336;-72
2023/10/20 04:24:48;;;;;;;4.17;3.50;;;13.60;99.90;;;;;;456921;259;28302;-73
2023/10/20 04:26:50;;;;;;;3.47;3.13;;;13.60;99.90;;;;;;456953;259;28508;-73
2023/10/20 04:29:07;;;;;;;3.47;3.13;;;13.60;99.90;;;;;;456981;259;28395;-72
2023/10/20 04:51:28;;;;;;;3.63;3.17;;;13.50;99.90;;;;;;456967;260;28277;-72
2023/10/20 04:59:43;;;;;;;4.23;3.47;;;13.40;99.90;;;;;;456891;259;28505;-73
2023/10/20 05:01:49;;;;;;;4.73;3.00;;;13.50;99.90;;;;;;456921;259;28895;-73
2023/10/20 05:03:57;;;;;;;3.50;3.00;;;13.50;99.90;;;;;;456952;259;28434;-74
2023/10/20 05:06:02;;;;;;;3.80;3.40;;;13.50;99.90;;;;;;456924;259;28325;-74
2023/10/20 05:08:05;;;;;;;3.00;2.80;;;13.50;99.90;;;;;;456839;259;28372;-73
2023/10/20 05:10:00;;;;;;;3.03;2.83;;;13.50;99.90;;;;;;456863;259;28300;-73
2023/10/20 05:12:01;;;;;;;2.80;2.60;;;13.50;99.90;;;;;;456950;259;28474;-73
2023/10/20 05:14:02;;;;;;;3.60;3.30;;;13.50;99.90;;;;;;456971;259;28985;-74
2023/10/20 05:16:04;;;;;;;3.40;2.90;;;13.50;99.90;;;;;;456947;255;28907;-73
2023/10/20 05:18:05;;;;;;;3.40;3.10;;;13.50;99.90;;;;;;456927;259;28796;-74
2023/10/20 05:20:07;;;;;;;4.60;3.00;;;13.50;99.90;;;;;;456962;259;28751;-73
2023/10/20 05:22:09;;;;;;;3.90;3.27;;;13.50;99.90;;;;;;456903;259;28774;-73
2023/10/20 05:24:09;;;;;;;2.80;2.60;;;13.50;99.90;;;;;;456952;259;28469;-74
2023/10/20 05:26:10;;;;;;;5.80;3.30;;;13.50;99.90;;;;;;456762;260;28284;-73
2023/10/20 05:28:11;;;;;;;3.03;2.83;;;13.50;99.90;;;;;;456944;255;28448;-73
2023/10/20 05:30:13;;;;;;;4.47;3.10;;;13.50;99.90;;;;;;456922;260;28331;-73
2023/10/20 05:32:15;;;;;;;5.33;3.40;;;13.50;99.90;;;;;;456949;259;28294;-73
2023/10/20 05:34:15;;;;;;;4.90;3.73;;;13.50;99.90;;;;;;456958;259;28344;-73
2023/10/20 05:36:16;;;;;;;3.60;3.30;;;13.50;99.90;;;;;;456952;259;28399;-73
2023/10/20 05:38:19;;;;;;;3.20;2.77;;;;;;;;;;456943;259;28362;-75
2023/10/20 05:40:20;;;;;;;4.03;3.20;;;13.50;99.90;;;;;;456946;260;27017;-73
2023/10/20 05:42:21;;;;;;;4.17;3.60;;;13.50;99.90;;;;;;456933;259;28331;-73
2023/10/20 05:44:23;;;;;;;4.50;3.83;;;13.40;99.90;;;;;;456929;259;28348;-73
2023/10/20 05:46:25;;;;;;;4.90;4.23;;;;;;;;;;456929;259;28364;-74
2023/10/20 05:48:26;;;;;;;5.80;3.07;;;13.40;99.90;;;;;;456952;260;27202;-73
2023/10/20 05:50:27;;;;;;;6.70;2.90;;;13.40;99.90;;;;;;456949;259;28326;-73
2023/10/20 05:52:28;;;;;;;5.57;3.90;;;13.40;99.90;;;;;;456940;259;28292;-73
2023/10/20 05:54:31;;;;;;;3.47;3.07;;;13.40;99.90;;;;;;456947;259;28428;-73
2023/10/20 05:56:31;;;;;;;4.63;3.53;;;13.40;99.90;;;;;;456969;259;28332;-73
2023/10/20 05:58:34;;;;;;;4.00;3.70;;;;;;;;;;456937;259;28337;-73
2023/10/20 06:00:36;;;;;;;3.70;3.40;;;13.30;99.90;;;;;;456970;260;27472;-73
2023/10/20 06:02:36;;;;;;;5.73;3.80;;;13.40;99.90;;;;;;456922;259;28412;-73
2023/10/20 06:04:37;;;;;;;5.83;3.83;;;13.50;99.90;;;;;;456897;259;28333;-73
2023/10/20 06:06:39;;;;;;;4.63;4.00;;;13.50;99.90;;;;;;456925;259;28279;-73
2023/10/20 06:08:40;;;;;;;5.50;4.00;;;13.50;99.90;;;;;;456892;259;28341;-73
2023/10/20 06:10:44;;;;;;;3.83;3.43;;;13.50;99.90;;;;;;456907;259;28342;-73
2023/10/20 06:12:42;;;;;;;6.40;3.33;;;13.50;99.90;;;;;;456887;260;28388;-73
2023/10/20 06:14:43;;;;;;;5.77;3.30;;;13.40;99.90;;;;;;456930;259;28346;-73
2023/10/20 06:16:45;;;;;;;3.10;2.57;;;13.50;99.90;;;;;;456934;259;28290;-73
2023/10/20 06:18:46;;;;;;;4.07;2.90;;;13.50;99.90;;;;;;456729;260;29637;-73
2023/10/20 06:20:48;;;;;;;2.93;2.63;;;;;;;;;;456936;259;29051;-73
2023/10/20 06:22:50;;;;;;;2.47;2.27;;;13.50;99.90;;;;;;456893;260;26561;-72
2023/10/20 06:24:51;;;;;;;3.30;2.80;;;13.50;99.90;;;;;;456917;259;29057;-73
2023/10/20 06:26:52;;;;;;;2.93;2.73;;;13.50;99.90;;;;;;456893;259;28444;-73
2023/10/20 06:28:55;;;;;;;3.43;2.60;;;;;;;;;;456962;259;28465;-73
2023/10/20 06:31:00;;;;;;;3.07;2.40;;;13.50;99.90;;;;;;456905;255;26566;-73
2023/10/20 06:33:16;;;;;;;2.60;2.40;;;13.60;99.90;;;;;;456955;259;28411;-72
2023/10/20 06:35:00;;;;;;;2.93;2.60;;;13.50;99.90;;;;;;456683;259;28535;-73
2023/10/20 06:37:12;;;;;;;2.40;2.20;;;13.60;99.90;;;;;;456887;259;28447;-75
2023/10/20 06:39:03;;;;;;;2.50;2.30;;;13.60;99.90;;;;;;456221;260;28741;-73
2023/10/20 06:41:04;;;;;;;2.87;2.40;;;13.60;99.90;;;;;;456877;259;28910;-74
2023/10/20 06:43:04;;;;;;;2.30;2.10;;;13.60;99.90;;;;;;456773;256;29981;-73
2023/10/20 06:45:05;;;;;;;3.90;2.90;;;13.60;99.90;;;;;;456872;260;28397;-73
2023/10/20 06:47:06;;;;;;;2.70;2.50;;;13.60;99.90;;;;;;456955;259;28433;-74
2023/10/20 06:49:07;;;;;;;4.90;2.97;;;13.60;99.90;;;;;;456919;259;28614;-73
2023/10/20 06:51:10;;;;;;;3.20;2.30;;;;;;;;;;456934;259;28574;-75
2023/10/20 06:53:11;;;;;;;3.10;2.80;;;13.60;99.90;;;;;;456950;260;27164;-73
2023/10/20 06:55:13;;;;;;;5.77;3.07;;;13.60;99.90;;;;;;456950;259;28899;-74
2023/10/20 06:57:14;;;;;;;2.70;2.50;;;13.60;99.90;;;;;;456893;259;29141;-73
2023/10/20 06:59:15;;;;;;;2.57;2.37;;;13.60;99.90;;;;;;456898;259;28477;-73
2023/10/20 07:01:16;;;;;;;3.07;2.77;;;13.60;99.90;;;;;;456942;259;28483;-75
2023/10/20 07:03:17;;;;;;;2.50;2.20;;;13.60;99.90;;;;;;456916;259;28308;-73
2023/10/20 07:05:19;;;;;;;2.60;2.30;;;13.60;99.90;;;;;;456943;259;28412;-73
2023/10/20 07:07:20;;;;;;;1.93;1.80;;;13.60;99.90;;;;;;456892;259;28439;-73
2023/10/20 07:09:21;;;;;;;2.77;2.57;;;13.60;99.90;;;;;;456898;259;28460;-73
2023/10/20 07:11:24;;;;;;;2.40;2.20;;;13.70;99.90;;;;;;456917;259;29118;-74
2023/10/20 07:13:25;;;;;;;6.40;2.80;;;13.70;99.90;;;;;;456860;259;28351;-73
2023/10/20 07:15:26;;;;;;;1.90;1.80;;;;;;;;;;456900;259;29028;-73
2023/10/20 07:17:28;;;;;;;3.30;2.70;;;13.70;99.90;;;;;;456920;260;26676;-73
2023/10/20 07:19:30;;;;;;;3.40;3.10;;;;;;;;;;456930;259;28310;-73
2023/10/20 07:21:31;;;;;;;4.43;3.27;;;13.70;99.90;;;;;;456938;260;27230;-73
2023/10/20 07:23:32;;;;;;;4.60;2.60;;;13.80;99.90;;;;;;456926;259;28991;-73
2023/10/20 07:25:33;;;;;;;2.90;2.10;;;13.80;99.90;;;;;;456924;259;28435;-73
2023/10/20 07:27:34;;;;;;;4.80;3.40;;;13.90;99.90;;;;;;456898;255;28531;-73
2023/10/20 07:29:36;;;;;;;7.33;2.40;;;13.90;99.90;;;;;;456875;259;28405;-72
2023/10/20 07:31:39;;;;;;;4.20;2.87;;;13.90;99.90;;;;;;456892;259;28705;-73
2023/10/20 07:33:38;;;;;;;2.43;2.23;;;14.00;99.90;;;;;;456948;259;28675;-73
2023/10/20 07:35:39;;;;;;;3.87;2.50;;;14.00;99.90;;;;;;456951;260;28490;-75
2023/10/20 07:37:41;;;;;;;3.20;2.70;;;14.00;99.90;;;;;;456941;259;28344;-73
2023/10/20 07:39:42;;;;;;;12.03;6.50;;;14.00;99.90;;;;;;456925;259;28475;-73
2023/10/20 07:41:43;;;;;;;8.43;5.93;;;14.00;99.90;;;;;;456923;259;28948;-73
2023/10/20 07:43:44;;;;;;;5.33;3.60;;;14.00;99.90;;;;;;456925;259;29190;-74
2023/10/20 07:45:46;;;;;;;3.07;2.50;;;14.00;99.90;;;;;;456936;259;28840;-73
2023/10/20 07:47:47;;;;;;;9.90;6.27;;;14.10;99.90;;;;;;456927;259;28591;-73
2023/10/20 07:49:48;;;;;;;3.33;2.80;;;14.10;99.90;;;;;;456928;256;28295;-73
2023/10/20 07:51:49;;;;;;;4.30;2.60;;;14.10;99.90;;;;;;456927;259;28308;-73
2023/10/20 07:53:51;;;;;;;2.23;1.90;;;14.10;99.90;;;;;;456938;259;28546;-74
2023/10/20 07:55:52;;;;;;;2.10;1.90;;;14.10;99.90;;;;;;456938;259;28437;-73
2023/10/20 07:57:55;;;;;;;3.10;2.80;;;14.10;99.90;;;;;;456910;259;28428;-74
2023/10/20 07:59:54;;;;;;;1.70;1.60;;;14.20;99.90;;;;;;456946;259;28330;-76
2023/10/20 08:01:56;;;;;;;2.33;2.13;;;14.30;99.90;;;;;;456952;259;28301;-73
2023/10/20 08:03:57;;;;;;;3.80;3.40;;;14.30;99.90;;;;;;456934;259;28452;-74
2023/10/20 08:05:58;;;;;;;3.50;2.77;;;14.30;99.90;;;;;;456934;259;29007;-73
2023/10/20 08:08:01;;;;;;;3.10;2.00;;;14.40;99.90;;;;;;456911;259;28866;-74
2023/10/20 08:10:01;;;;;;;5.30;2.03;;;14.50;99.90;;;;;;456947;259;29242;-74
2023/10/20 08:12:02;;;;;;;2.13;1.90;;;14.50;99.90;;;;;;456921;259;28469;-73
2023/10/20 08:14:05;;;;;;;4.50;2.50;;;14.40;99.90;;;;;;456915;259;28748;-73
2023/10/20 08:16:05;;;;;;;2.13;1.83;;;14.50;99.90;;;;;;456881;259;28840;-73
2023/10/20 08:18:07;;;;;;;2.23;2.10;;;14.50;99.90;;;;;;456898;259;28551;-73
2023/10/20 08:20:09;;;;;;;5.23;2.87;;;14.40;99.90;;;;;;456924;259;28333;-75
2023/10/20 08:22:08;;;;;;;2.47;2.20;;;14.40;99.90;;;;;;456879;259;28431;-73
2023/10/20 08:24:10;;;;;;;3.77;2.70;;;14.40;99.90;;;;;;456867;259;28610;-73
2023/10/20 08:26:11;;;;;;;7.37;2.57;;;14.40;99.90;;;;;;456829;259;28599;-73
2023/10/20 08:28:12;;;;;;;6.43;3.60;;;14.40;99.90;;;;;;456858;259;28656;-74
2023/10/20 08:30:13;;;;;;;3.10;2.60;;;14.40;99.90;;;;;;456906;259;29273;-74
2023/10/20 08:32:15;;;;;;;4.13;3.40;;;14.40;99.90;;;;;;456878;259;29243;-73
2023/10/20 08:34:16;;;;;;;4.87;3.60;;;14.40;99.90;;;;;;456879;259;29446;-73
2023/10/20 08:36:20;;;;;;;2.67;2.43;;;14.40;99.90;;;;;;456909;259;29203;-73
2023/10/20 08:38:18;;;;;;;9.23;4.00;;;14.50;99.90;;;;;;456890;259;28513;-73
2023/10/20 08:40:19;;;;;;;4.37;3.60;;;14.50;99.90;;;;;;456885;260;28462;-74
2023/10/20 08:42:21;;;;;;;4.30;2.60;;;14.60;99.90;;;;;;456911;259;28959;-73
2023/10/20 08:44:22;;;;;;;7.90;4.80;;;14.60;99.90;;;;;;456921;259;29104;-73
2023/10/20 08:46:23;;;;;;;7.23;4.20;;;14.60;99.90;;;;;;456916;259;29380;-74
2023/10/20 08:48:24;;;;;;;7.43;4.27;;;14.60;99.90;;;;;;456928;259;28590;-73
2023/10/20 08:50:29;;;;;;;9.50;5.60;;;14.50;99.90;;;;;;456924;259;28702;-74
2023/10/20 08:52:27;;;;;;;8.40;5.50;;;14.50;99.90;;;;;;456909;259;28646;-73
2023/10/20 08:54:28;;;;;;;6.23;4.70;;;14.50;99.90;;;;;;456917;259;29414;-73
2023/10/20 08:56:29;;;;;;;34.67;15.87;;;14.50;99.90;;;;;;456952;259;29518;-75
2023/10/20 08:58:31;;;;;;;19.20;12.33;;;14.50;99.90;;;;;;456929;259;29102;-73
2023/10/20 09:00:32;;;;;;;8.57;5.40;;;14.60;99.90;;;;;;456914;259;29084;-74
2023/10/20 09:02:33;;;;;;;6.73;4.87;;;14.60;99.90;;;;;;456890;259;28980;-73
2023/10/20 09:04:34;;;;;;;4.40;4.00;;;14.70;99.90;;;;;;456861;259;28685;-74
2023/10/20 09:06:36;;;;;;;3.60;2.97;;;14.80;99.90;;;;;;456860;259;29121;-73
2023/10/20 09:08:37;;;;;;;4.07;3.20;;;14.90;99.90;;;;;;456870;259;28938;-73
2023/10/20 09:10:39;;;;;;;3.70;3.00;;;15.00;99.90;;;;;;456904;259;29090;-73
2023/10/20 09:12:40;;;;;;;5.17;3.53;;;15.00;99.90;;;;;;456889;259;29331;-76
2023/10/20 09:14:41;;;;;;;3.43;3.13;;;15.00;99.90;;;;;;456932;259;28958;-73
2023/10/20 09:16:42;;;;;;;5.00;3.97;;;14.90;99.90;;;;;;456934;259;29463;-74
2023/10/20 09:18:43;;;;;;;3.50;3.20;;;14.90;99.90;;;;;;456923;259;29477;-73
2023/10/20 09:20:45;;;;;;;5.07;3.77;;;14.90;99.90;;;;;;456941;259;29480;-73
2023/10/20 09:22:46;;;;;;;5.47;3.57;;;15.00;99.90;;;;;;456944;259;29466;-74
2023/10/20 09:24:47;;;;;;;4.07;3.20;;;15.00;99.90;;;;;;456922;259;29047;-74
2023/10/20 09:26:49;;;;;;;3.20;2.90;;;15.20;99.90;;;;;;456949;259;29056;-74
2023/10/20 09:28:50;;;;;;;4.13;3.73;;;15.10;99.90;;;;;;456953;259;28934;-73
2023/10/20 09:30:51;;;;;;;3.60;3.30;;;15.20;99.90;;;;;;456937;259;28955;-74
2023/10/20 09:32:52;;;;;;;3.33;3.03;;;15.20;99.90;;;;;;456958;259;28999;-74
2023/10/20 09:34:53;;;;;;;3.43;3.13;;;15.20;99.90;;;;;;456942;259;28953;-73
2023/10/20 09:36:56;;;;;;;3.50;3.17;;;15.20;99.90;;;;;;456921;259;29006;-74
2023/10/20 09:38:56;;;;;;;3.37;3.10;;;15.30;99.90;;;;;;456916;259;29334;-73
2023/10/20 09:40:57;;;;;;;3.60;3.30;;;15.20;99.90;;;;;;456921;260;28962;-74
2023/10/20 09:42:58;;;;;;;3.40;3.10;;;15.20;99.90;;;;;;456902;259;29011;-73
2023/10/20 09:45:00;;;;;;;3.30;3.00;;;15.20;99.90;;;;;;456889;259;28951;-73
2023/10/20 09:47:01;;;;;;;4.33;3.97;;;15.20;99.90;;;;;;456929;259;29089;-73
2023/10/20 09:49:03;;;;;;;4.20;3.40;;;15.30;99.90;;;;;;456943;259;29520;-73
2023/10/20 09:51:03;;;;;;;3.77;3.47;;;15.40;99.90;;;;;;456924;259;29419;-73
2023/10/20 09:53:05;;;;;;;3.93;3.50;;;15.40;99.90;;;;;;456947;259;29482;-74
2023/10/20 09:55:06;;;;;;;3.90;3.10;;;15.40;99.90;;;;;;456925;259;29074;-75
2023/10/20 09:57:08;;;;;;;3.47;3.17;;;15.40;99.90;;;;;;456929;259;28982;-73
2023/10/20 09:59:12;;;;;;;4.03;3.07;;;15.50;99.90;;;;;;456875;259;28990;-73
2023/10/20 10:01:12;;;;;;;5.40;3.00;;;15.50;99.90;;;;;;456909;259;29083;-73
2023/10/20 10:03:14;;;;;;;3.20;2.90;;;15.50;99.90;;;;;;456885;259;29029;-73
2023/10/20 10:05:15;;;;;;;2.93;2.73;;;15.50;99.90;;;;;;456896;259;29513;-73
2023/10/20 10:07:16;;;;;;;3.00;2.70;;;15.50;99.90;;;;;;456914;259;29481;-74
2023/10/20 10:09:18;;;;;;;2.93;2.57;;;15.50;99.90;;;;;;456949;259;29409;-73
2023/10/20 10:11:19;;;;;;;2.77;2.50;;;15.50;99.90;;;;;;456935;259;29557;-73
2023/10/20 10:13:20;;;;;;;4.90;3.20;;;15.60;99.90;;;;;;456756;260;29037;-73
2023/10/20 10:15:22;;;;;;;3.73;2.50;;;15.50;99.90;;;;;;456906;259;28988;-73
2023/10/20 10:17:23;;;;;;;3.30;3.00;;;15.60;99.90;;;;;;456898;259;28997;-74
2023/10/20 10:19:24;;;;;;;3.50;2.50;;;15.60;99.90;;;;;;456920;259;28930;-73
2023/10/20 10:21:25;;;;;;;2.67;2.47;;;15.30;99.90;;;;;;456937;259;29021;-74
2023/10/20 10:23:27;;;;;;;3.10;2.80;;;15.30;99.90;;;;;;456918;259;28972;-73
2023/10/20 10:25:27;;;;;;;3.53;3.20;;;15.30;99.90;;;;;;456917;255;28934;-73
2023/10/20 10:27:29;;;;;;;2.80;2.60;;;15.20;99.90;;;;;;456938;259;28991;-73
2023/10/20 10:29:30;;;;;;;4.30;2.90;;;15.30;99.90;;;;;;456912;259;29429;-73
2023/10/20 10:31:31;;;;;;;3.90;3.03;;;15.50;99.90;;;;;;456919;259;29454;-73
2023/10/20 10:33:32;;;;;;;3.17;2.97;;;15.70;99.90;;;;;;456919;259;29532;-73
2023/10/20 10:35:34;;;;;;;15.40;11.53;;;15.90;99.90;;;;;;456934;259;29405;-73
2023/10/20 10:37:35;;;;;;;6.30;4.40;;;16.10;99.90;;;;;;456920;259;28985;-74
2023/10/20 10:39:36;;;;;;;5.50;3.93;;;16.30;99.90;;;;;;456915;259;29048;-73
2023/10/20 10:41:37;;;;;;;3.30;3.00;;;16.30;99.90;;;;;;456891;259;28979;-73
2023/10/20 10:43:40;;;;;;;2.63;2.43;;;16.30;99.90;;;;;;456907;259;29438;-75
2023/10/20 10:45:42;;;;;;;7.00;2.33;;;16.10;99.90;;;;;;456898;260;29038;-73
2023/10/20 10:47:43;;;;;;;2.80;2.60;;;16.10;99.90;;;;;;456897;259;28987;-73
2023/10/20 10:49:44;;;;;;;2.33;2.13;;;16.20;99.90;;;;;;456923;259;29486;-72
2023/10/20 10:51:46;;;;;;;2.50;2.30;;;16.40;99.90;;;;;;456924;259;29472;-72
2023/10/20 10:53:47;;;;;;;2.87;2.13;;;16.40;99.90;;;;;;456909;259;29657;-72
2023/10/20 10:55:48;;;;;;;2.53;2.00;;;16.10;99.90;;;;;;456946;259;29027;-72
2023/10/20 10:57:49;;;;;;;3.70;2.20;;;15.90;99.90;;;;;;456943;259;29000;-73
2023/10/20 10:59:50;;;;;;;2.00;1.90;;;16.00;99.90;;;;;;456934;259;29055;-72
2023/10/20 11:01:52;;;;;;;1.87;1.77;;;16.00;99.90;;;;;;456930;260;29007;-72